createdAt,value
2018-03-14T00:00:35.826Z,4.38
2018-03-14T00:01:45.809Z,4.47
2018-03-14T00:02:56.040Z,4.3
2018-03-14T00:04:06.344Z,4.37
2018-03-14T00:05:16.337Z,4.37
2018-03-14T00:06:25.866Z,4.34
2018-03-14T00:07:36.077Z,4.4
2018-03-14T00:08:46.297Z,4.43
2018-03-14T00:09:56.478Z,4.36
2018-03-14T00:11:06.779Z,4.34
2018-03-14T00:12:16.974Z,4.4
2018-03-14T00:13:27.173Z,4.41
2018-03-14T00:14:37.415Z,4.41
2018-03-14T00:15:47.303Z,4.41
2018-03-14T00:16:56.963Z,4.4
2018-03-14T00:18:07.192Z,4.38
2018-03-14T00:19:17.112Z,4.46
2018-03-14T00:20:26.886Z,4.4
2018-03-14T00:21:37.189Z,4.33
2018-03-14T00:22:47.098Z,4.33
2018-03-14T00:23:57.277Z,4.28
2018-03-14T00:25:07.202Z,4.27
2018-03-14T00:26:17.404Z,4.36
2018-03-14T00:27:27.068Z,4.36
2018-03-14T00:28:37.233Z,4.23
2018-03-14T00:29:47.394Z,4.34
2018-03-14T00:30:57.336Z,4.31
2018-03-14T00:32:07.726Z,4.36
2018-03-14T00:33:18.082Z,4.31
2018-03-14T00:34:28.060Z,4.31
2018-03-14T00:35:37.368Z,4.31
2018-03-14T00:36:47.353Z,4.31
2018-03-14T00:37:56.959Z,4.3
2018-03-14T00:39:06.589Z,4.36
2018-03-14T00:40:16.804Z,4.28
2018-03-14T00:41:26.995Z,4.33
2018-03-14T00:42:37.259Z,4.36
2018-03-14T00:43:48.241Z,4.31
2018-03-14T00:45:00.312Z,4.27
2018-03-14T00:46:12.808Z,4.22
2018-03-14T00:47:23.556Z,4.31
2018-03-14T00:48:34.044Z,4.36
2018-03-14T00:49:44.219Z,4.34
2018-03-14T00:50:54.400Z,4.36
2018-03-14T00:52:04.576Z,4.3
2018-03-14T00:53:14.776Z,4.28
2018-03-14T00:54:24.978Z,4.3
2018-03-14T00:55:35.163Z,4.36
2018-03-14T00:56:45.106Z,4.31
2018-03-14T00:57:54.911Z,4.34
2018-03-14T00:59:04.521Z,4.33
2018-03-14T01:00:14.414Z,4.31
2018-03-14T01:01:24.596Z,4.23
2018-03-14T01:02:34.144Z,4.34
2018-03-14T01:03:43.730Z,4.33
2018-03-14T01:04:55.035Z,4.25
2018-03-14T01:06:04.939Z,4.28
2018-03-14T01:07:14.579Z,4.23
2018-03-14T01:08:24.797Z,4.19
2018-03-14T01:09:35.030Z,4.19
2018-03-14T01:10:45.364Z,4.2
2018-03-14T01:11:54.918Z,4.23
2018-03-14T01:13:04.545Z,4.28
2018-03-14T01:14:14.482Z,4.2
2018-03-14T01:15:24.290Z,4.23
2018-03-14T01:16:34.271Z,4.22
2018-03-14T01:17:44.735Z,4.2
2018-03-14T01:18:54.570Z,4.13
2018-03-14T01:20:04.494Z,4.11
2018-03-14T01:21:14.401Z,4.22
2018-03-14T01:22:24.565Z,4.22
2018-03-14T01:23:34.748Z,4.12
2018-03-14T01:24:44.640Z,4.22
2018-03-14T01:25:54.551Z,4.2
2018-03-14T01:27:04.378Z,4.13
2018-03-14T01:28:14.573Z,4.16
2018-03-14T01:29:24.796Z,4.16
2018-03-14T01:30:34.983Z,4.15
2018-03-14T01:31:44.549Z,4.13
2018-03-14T01:32:54.481Z,4.23
2018-03-14T01:34:04.438Z,4.15
2018-03-14T01:35:14.343Z,4.22
2018-03-14T01:36:24.262Z,4.16
2018-03-14T01:37:34.180Z,4.15
2018-03-14T01:38:44.357Z,4.18
2018-03-14T01:39:54.584Z,4.18
2018-03-14T01:41:04.521Z,4.2
2018-03-14T01:42:14.424Z,4.18
2018-03-14T01:43:24.349Z,4.09
2018-03-14T01:44:34.724Z,4.2
2018-03-14T01:45:44.681Z,4.11
2018-03-14T01:46:56.768Z,4.12
2018-03-14T01:48:06.940Z,4.19
2018-03-14T01:49:19.588Z,4.11
2018-03-14T01:50:30.974Z,4.11
2018-03-14T01:51:42.347Z,4.15
2018-03-14T01:52:52.267Z,4.16
2018-03-14T01:54:02.359Z,4.13
2018-03-14T01:55:12.657Z,4.18
2018-03-14T01:56:22.846Z,4.11
2018-03-14T01:57:32.823Z,4.16
2018-03-14T01:58:42.452Z,4.13
2018-03-14T01:59:52.642Z,4.2
2018-03-14T02:01:02.830Z,4.13
2018-03-14T02:02:12.681Z,4.18
2018-03-14T02:03:22.892Z,4.28
2018-03-14T02:04:32.502Z,4.19
2018-03-14T02:05:42.702Z,4.27
2018-03-14T02:06:52.612Z,4.15
2018-03-14T02:08:02.505Z,4.25
2018-03-14T02:09:12.668Z,4.25
2018-03-14T02:10:22.289Z,4.18
2018-03-14T02:11:31.978Z,4.25
2018-03-14T02:12:42.129Z,4.2
2018-03-14T02:13:52.013Z,4.25
2018-03-14T02:15:01.576Z,4.18
2018-03-14T02:16:11.768Z,4.22
2018-03-14T02:17:21.981Z,4.27
2018-03-14T02:18:32.225Z,4.22
2018-03-14T02:19:42.462Z,4.2
2018-03-14T02:20:52.367Z,4.28
2018-03-14T02:22:02.252Z,4.25
2018-03-14T02:23:12.175Z,4.25
2018-03-14T02:24:22.169Z,4.2
2018-03-14T02:25:32.517Z,4.2
2018-03-14T02:26:42.461Z,4.2
2018-03-14T02:27:52.386Z,4.22
2018-03-14T02:29:02.588Z,4.2
2018-03-14T02:30:12.740Z,4.23
2018-03-14T02:31:22.945Z,4.23
2018-03-14T02:32:33.372Z,4.25
2018-03-14T02:33:43.293Z,4.2
2018-03-14T02:34:53.472Z,4.2
2018-03-14T02:36:03.627Z,4.22
2018-03-14T02:37:13.913Z,4.28
2018-03-14T02:38:24.077Z,4.22
2018-03-14T02:39:33.633Z,4.13
2018-03-14T02:40:43.855Z,4.2
2018-03-14T02:41:53.800Z,4.2
2018-03-14T02:43:03.352Z,4.2
2018-03-14T02:44:14.529Z,4.23
2018-03-14T02:45:24.692Z,4.23
2018-03-14T02:46:34.821Z,4.16
2018-03-14T02:47:44.912Z,4.16
2018-03-14T02:48:55.000Z,4.27
2018-03-14T02:50:04.499Z,4.25
2018-03-14T02:51:14.191Z,4.25
2018-03-14T02:52:24.107Z,4.2
2018-03-14T02:53:34.316Z,4.2
2018-03-14T02:54:44.432Z,4.19
2018-03-14T02:55:54.049Z,4.25
2018-03-14T02:57:04.212Z,4.23
2018-03-14T02:58:14.295Z,4.19
2018-03-14T02:59:24.433Z,4.22
2018-03-14T03:00:34.196Z,4.13
2018-03-14T03:01:44.348Z,4.15
2018-03-14T03:02:54.242Z,4.16
2018-03-14T03:04:04.372Z,4.31
2018-03-14T03:05:14.165Z,4.18
2018-03-14T03:06:24.284Z,4.19
2018-03-14T03:07:33.887Z,4.19
2018-03-14T03:08:43.996Z,4.15
2018-03-14T03:09:54.144Z,4.15
2018-03-14T03:11:04.275Z,4.16
2018-03-14T03:12:14.742Z,4.2
2018-03-14T03:13:24.868Z,4.12
2018-03-14T03:14:34.727Z,4.13
2018-03-14T03:15:44.129Z,4.16
2018-03-14T03:16:54.502Z,4.23
2018-03-14T03:18:04.408Z,4.11
2018-03-14T03:19:14.551Z,4.12
2018-03-14T03:20:24.522Z,4.16
2018-03-14T03:21:34.652Z,4.2
2018-03-14T03:22:44.652Z,4.15
2018-03-14T03:23:54.191Z,4.15
2018-03-14T03:25:04.337Z,4.09
2018-03-14T03:26:14.296Z,4.16
2018-03-14T03:27:24.504Z,4.09
2018-03-14T03:28:34.765Z,4.04
2018-03-14T03:29:44.572Z,4.12
2018-03-14T03:30:54.505Z,4.2
2018-03-14T03:32:04.297Z,4
2018-03-14T03:33:14.449Z,4.01
2018-03-14T03:34:24.555Z,4.12
2018-03-14T03:35:34.740Z,3.97
2018-03-14T03:36:44.860Z,3.98
2018-03-14T03:37:54.963Z,4.13
2018-03-14T03:39:04.853Z,4.04
2018-03-14T03:40:14.704Z,4.11
2018-03-14T03:41:24.580Z,4.09
2018-03-14T03:42:34.693Z,4
2018-03-14T03:43:44.186Z,4.03
2018-03-14T03:44:53.814Z,4.05
2018-03-14T03:46:03.990Z,4.03
2018-03-14T03:47:14.088Z,4.03
2018-03-14T03:48:23.747Z,4.04
2018-03-14T03:49:33.610Z,4.11
2018-03-14T03:50:43.491Z,3.98
2018-03-14T03:51:54.640Z,4.03
2018-03-14T03:53:04.750Z,4
2018-03-14T03:54:14.590Z,4
2018-03-14T03:55:24.355Z,3.95
2018-03-14T03:56:34.681Z,4.01
2018-03-14T03:57:44.528Z,3.95
2018-03-14T03:58:54.385Z,3.95
2018-03-14T04:00:05.504Z,3.95
2018-03-14T04:01:15.132Z,3.98
2018-03-14T04:02:25.356Z,3.97
2018-03-14T04:03:35.229Z,4.03
2018-03-14T04:04:45.367Z,3.95
2018-03-14T04:05:55.480Z,3.9
2018-03-14T04:07:05.097Z,3.94
2018-03-14T04:08:14.986Z,3.98
2018-03-14T04:09:24.870Z,3.87
2018-03-14T04:10:34.976Z,3.9
2018-03-14T04:11:44.770Z,3.91
2018-03-14T04:12:54.870Z,3.91
2018-03-14T04:14:04.980Z,3.91
2018-03-14T04:15:15.198Z,3.95
2018-03-14T04:16:24.820Z,3.9
2018-03-14T04:17:34.943Z,3.93
2018-03-14T04:18:45.074Z,3.86
2018-03-14T04:19:55.189Z,3.9
2018-03-14T04:21:05.097Z,3.95
2018-03-14T04:22:15.200Z,3.91
2018-03-14T04:23:25.362Z,3.97
2018-03-14T04:24:35.236Z,3.97
2018-03-14T04:25:45.108Z,3.9
2018-03-14T04:26:55.212Z,3.85
2018-03-14T04:28:05.060Z,3.9
2018-03-14T04:29:14.915Z,3.85
2018-03-14T04:30:25.089Z,3.82
2018-03-14T04:31:35.017Z,3.94
2018-03-14T04:32:45.207Z,3.86
2018-03-14T04:33:55.422Z,3.85
2018-03-14T04:35:05.689Z,3.87
2018-03-14T04:36:15.914Z,3.87
2018-03-14T04:37:26.073Z,3.97
2018-03-14T04:38:36.243Z,3.95
2018-03-14T04:39:45.899Z,3.91
2018-03-14T04:40:55.760Z,3.91
2018-03-14T04:42:05.898Z,3.95
2018-03-14T04:43:16.282Z,3.94
2018-03-14T04:44:26.523Z,3.87
2018-03-14T04:45:36.717Z,3.87
2018-03-14T04:46:47.020Z,3.91
2018-03-14T04:47:57.196Z,3.87
2018-03-14T04:49:07.327Z,3.83
2018-03-14T04:50:17.325Z,3.87
2018-03-14T04:51:27.444Z,3.85
2018-03-14T04:52:37.293Z,3.85
2018-03-14T04:53:47.438Z,3.85
2018-03-14T04:54:57.588Z,3.85
2018-03-14T04:56:07.732Z,3.9
2018-03-14T04:57:17.599Z,3.82
2018-03-14T04:58:27.297Z,3.87
2018-03-14T04:59:37.469Z,3.9
2018-03-14T05:00:46.963Z,3.91
2018-03-14T05:01:57.082Z,3.85
2018-03-14T05:03:08.174Z,3.83
2018-03-14T05:04:18.043Z,3.82
2018-03-14T05:05:28.150Z,3.86
2018-03-14T05:06:38.267Z,3.8
2018-03-14T05:07:48.429Z,3.83
2018-03-14T05:08:58.620Z,3.85
2018-03-14T05:10:08.496Z,3.8
2018-03-14T05:11:18.372Z,3.87
2018-03-14T05:12:28.501Z,3.9
2018-03-14T05:13:38.608Z,3.85
2018-03-14T05:14:48.748Z,3.82
2018-03-14T05:15:58.364Z,3.86
2018-03-14T05:17:08.263Z,3.82
2018-03-14T05:18:18.137Z,3.82
2018-03-14T05:19:28.256Z,3.86
2018-03-14T05:20:38.118Z,3.87
2018-03-14T05:21:48.297Z,3.83
2018-03-14T05:22:57.963Z,3.87
2018-03-14T05:24:07.838Z,3.85
2018-03-14T05:25:17.713Z,3.83
2018-03-14T05:26:27.313Z,3.91
2018-03-14T05:27:37.433Z,3.87
2018-03-14T05:28:47.338Z,3.87
2018-03-14T05:29:57.099Z,3.79
2018-03-14T05:31:06.949Z,3.77
2018-03-14T05:32:16.589Z,3.79
2018-03-14T05:33:26.509Z,3.83
2018-03-14T05:34:36.842Z,3.75
2018-03-14T05:35:46.998Z,3.69
2018-03-14T05:36:57.099Z,3.79
2018-03-14T05:38:06.637Z,3.77
2018-03-14T05:39:16.763Z,3.75
2018-03-14T05:40:26.667Z,3.73
2018-03-14T05:41:36.542Z,3.72
2018-03-14T05:42:46.694Z,3.69
2018-03-14T05:43:56.561Z,3.72
2018-03-14T05:45:06.425Z,3.68
2018-03-14T05:46:16.548Z,3.75
2018-03-14T05:47:26.673Z,3.68
2018-03-14T05:48:36.819Z,3.69
2018-03-14T05:49:46.713Z,3.68
2018-03-14T05:50:57.357Z,3.64
2018-03-14T05:52:06.981Z,3.55
2018-03-14T05:53:17.112Z,3.49
2018-03-14T05:54:27.247Z,3.42
2018-03-14T05:55:37.113Z,3.34
2018-03-14T05:56:46.707Z,3.42
2018-03-14T05:57:56.564Z,3.29
2018-03-14T05:59:06.685Z,3.43
2018-03-14T06:00:16.962Z,3.43
2018-03-14T06:01:26.930Z,3.24
2018-03-14T06:02:36.780Z,3.24
2018-03-14T06:03:46.705Z,3.39
2018-03-14T06:04:56.912Z,3.34
2018-03-14T06:06:06.767Z,3.37
2018-03-14T06:07:16.953Z,3.29
2018-03-14T06:08:26.340Z,3.36
2018-03-14T06:09:36.195Z,3.32
2018-03-14T06:10:45.937Z,3.28
2018-03-14T06:11:56.218Z,3.29
2018-03-14T06:13:06.444Z,3.31
2018-03-14T06:14:16.446Z,3.4
2018-03-14T06:15:26.604Z,3.43
2018-03-14T06:16:36.764Z,3.37
2018-03-14T06:17:46.922Z,3.37
2018-03-14T06:18:57.035Z,3.39
2018-03-14T06:20:07.234Z,3.42
2018-03-14T06:21:17.372Z,3.49
2018-03-14T06:22:27.745Z,3.43
2018-03-14T06:23:37.916Z,3.5
2018-03-14T06:24:47.712Z,3.42
2018-03-14T06:25:57.846Z,3.55
2018-03-14T06:27:07.965Z,3.49
2018-03-14T06:28:18.151Z,3.44
2018-03-14T06:29:28.176Z,3.34
2018-03-14T06:30:38.176Z,3.49
2018-03-14T06:31:48.383Z,3.43
2018-03-14T06:32:58.238Z,3.46
2018-03-14T06:34:08.094Z,3.47
2018-03-14T06:35:17.862Z,3.47
2018-03-14T06:36:27.989Z,3.5
2018-03-14T06:37:38.133Z,3.5
2018-03-14T06:38:48.248Z,3.46
2018-03-14T06:39:58.411Z,3.49
2018-03-14T06:41:08.557Z,3.52
2018-03-14T06:42:17.558Z,3.49
2018-03-14T06:43:27.407Z,3.54
2018-03-14T06:44:37.150Z,3.55
2018-03-14T06:45:46.755Z,3.54
2018-03-14T06:46:56.479Z,3.54
2018-03-14T06:48:06.649Z,3.52
2018-03-14T06:49:16.668Z,3.55
2018-03-14T06:50:26.806Z,3.67
2018-03-14T06:51:36.673Z,3.52
2018-03-14T06:52:46.888Z,3.64
2018-03-14T06:53:56.776Z,3.62
2018-03-14T06:55:06.331Z,3.68
2018-03-14T06:56:16.234Z,3.76
2018-03-14T06:57:26.112Z,3.69
2018-03-14T06:58:36.293Z,3.68
2018-03-14T06:59:46.047Z,3.73
2018-03-14T07:00:56.156Z,3.69
2018-03-14T07:02:06.374Z,3.68
2018-03-14T07:03:16.010Z,3.73
2018-03-14T07:04:26.403Z,3.69
2018-03-14T07:05:36.535Z,3.77
2018-03-14T07:06:46.427Z,3.79
2018-03-14T07:07:56.540Z,3.8
2018-03-14T07:09:06.380Z,3.8
2018-03-14T07:10:17.474Z,3.85
2018-03-14T07:11:27.377Z,3.85
2018-03-14T07:12:37.484Z,3.85
2018-03-14T07:13:47.629Z,3.83
2018-03-14T07:14:57.508Z,3.9
2018-03-14T07:16:07.647Z,3.86
2018-03-14T07:17:17.858Z,3.85
2018-03-14T07:18:28.009Z,3.85
2018-03-14T07:19:38.190Z,3.83
2018-03-14T07:20:48.377Z,3.94
2018-03-14T07:21:58.576Z,3.86
2018-03-14T07:23:08.777Z,3.94
2018-03-14T07:24:18.916Z,3.98
2018-03-14T07:25:29.019Z,4.08
2018-03-14T07:26:38.962Z,3.98
2018-03-14T07:27:49.274Z,4.03
2018-03-14T07:28:59.176Z,3.98
2018-03-14T07:30:10.281Z,4.01
2018-03-14T07:31:20.408Z,4.05
2018-03-14T07:32:30.663Z,4.03
2018-03-14T07:33:40.819Z,4.11
2018-03-14T07:34:50.689Z,4.11
2018-03-14T07:36:00.995Z,4.13
2018-03-14T07:37:11.140Z,4.16
2018-03-14T07:38:21.026Z,4.22
2018-03-14T07:39:30.910Z,4.19
2018-03-14T07:40:41.192Z,4.22
2018-03-14T07:41:51.296Z,4.25
2018-03-14T07:43:01.245Z,4.25
2018-03-14T07:44:11.225Z,4.2
2018-03-14T07:45:21.397Z,4.23
2018-03-14T07:46:31.236Z,4.2
2018-03-14T07:47:41.153Z,4.19
2018-03-14T07:48:51.030Z,4.22
2018-03-14T07:50:01.267Z,4.25
2018-03-14T07:51:11.403Z,4.23
2018-03-14T07:52:21.515Z,4.22
2018-03-14T07:53:31.301Z,4.18
2018-03-14T07:54:41.171Z,4.18
2018-03-14T07:55:51.308Z,4.2
2018-03-14T07:57:01.417Z,4.2
2018-03-14T07:58:11.558Z,4.23
2018-03-14T07:59:21.780Z,4.15
2018-03-14T08:00:31.992Z,4.15
2018-03-14T08:01:42.160Z,4.16
2018-03-14T08:02:52.380Z,4.15
2018-03-14T08:04:02.060Z,4.12
2018-03-14T08:05:11.918Z,4.2
2018-03-14T08:06:21.846Z,4.08
2018-03-14T08:07:31.971Z,4.12
2018-03-14T08:08:41.909Z,4.11
2018-03-14T08:09:51.829Z,4.09
2018-03-14T08:11:01.712Z,4.18
2018-03-14T08:12:11.907Z,4.13
2018-03-14T08:13:22.162Z,4.11
2018-03-14T08:14:32.639Z,4.16
2018-03-14T08:15:42.759Z,4.09
2018-03-14T08:16:52.878Z,4.2
2018-03-14T08:18:02.994Z,4.09
2018-03-14T08:19:13.192Z,4.12
2018-03-14T08:20:23.482Z,4.18
2018-03-14T08:21:33.670Z,4.22
2018-03-14T08:22:43.967Z,4.22
2018-03-14T08:23:54.098Z,4.22
2018-03-14T08:25:04.283Z,4.28
2018-03-14T08:26:14.455Z,4.31
2018-03-14T08:27:24.761Z,4.25
2018-03-14T08:28:34.980Z,4.23
2018-03-14T08:29:45.233Z,4.33
2018-03-14T08:30:55.413Z,4.25
2018-03-14T08:32:05.674Z,4.31
2018-03-14T08:33:15.892Z,4.3
2018-03-14T08:34:25.561Z,4.31
2018-03-14T08:35:35.762Z,4.28
2018-03-14T08:36:45.904Z,4.28
2018-03-14T08:37:56.082Z,4.33
2018-03-14T08:39:06.199Z,4.3
2018-03-14T08:40:16.412Z,4.3
2018-03-14T08:41:26.578Z,4.36
2018-03-14T08:42:36.746Z,4.28
2018-03-14T08:43:46.879Z,4.36
2018-03-14T08:44:57.019Z,4.2
2018-03-14T08:46:07.198Z,4.3
2018-03-14T08:47:17.065Z,4.31
2018-03-14T08:48:27.196Z,4.3
2018-03-14T08:49:37.368Z,4.25
2018-03-14T08:50:47.536Z,4.3
2018-03-14T08:51:57.644Z,4.36
2018-03-14T08:53:07.779Z,4.31
2018-03-14T08:54:17.992Z,4.34
2018-03-14T08:55:28.279Z,4.37
2018-03-14T08:56:38.407Z,4.33
2018-03-14T08:57:48.269Z,4.4
2018-03-14T08:58:58.394Z,4.38
2018-03-14T09:00:08.614Z,4.4
2018-03-14T09:01:18.742Z,4.33
2018-03-14T09:02:28.957Z,4.43
2018-03-14T09:03:39.177Z,4.43
2018-03-14T09:04:49.105Z,4.46
2018-03-14T09:05:59.271Z,4.52
2018-03-14T09:07:09.419Z,4.53
2018-03-14T09:08:19.641Z,4.53
2018-03-14T09:09:29.917Z,4.5
2018-03-14T09:10:40.047Z,4.55
2018-03-14T09:11:50.264Z,4.53
2018-03-14T09:13:00.466Z,4.67
2018-03-14T09:14:10.624Z,4.63
2018-03-14T09:15:20.725Z,4.62
2018-03-14T09:16:30.602Z,4.7
2018-03-14T09:17:40.928Z,4.65
2018-03-14T09:18:51.112Z,4.68
2018-03-14T09:20:00.870Z,4.6
2018-03-14T09:21:10.728Z,4.73
2018-03-14T09:22:20.866Z,4.75
2018-03-14T09:23:30.993Z,4.67
2018-03-14T09:24:41.149Z,4.73
2018-03-14T09:25:51.338Z,4.8
2018-03-14T09:27:01.505Z,4.75
2018-03-14T09:28:11.625Z,4.77
2018-03-14T09:29:21.783Z,4.77
2018-03-14T09:30:31.636Z,4.8
2018-03-14T09:31:41.164Z,4.77
2018-03-14T09:32:51.197Z,4.7
2018-03-14T09:34:01.059Z,4.81
2018-03-14T09:35:11.365Z,4.77
2018-03-14T09:36:21.332Z,4.68
2018-03-14T09:37:31.207Z,4.7
2018-03-14T09:38:41.352Z,4.71
2018-03-14T09:39:51.251Z,4.77
2018-03-14T09:41:01.120Z,4.7
2018-03-14T09:42:10.781Z,4.68
2018-03-14T09:43:20.975Z,4.67
2018-03-14T09:44:31.140Z,4.75
2018-03-14T09:45:41.266Z,4.74
2018-03-14T09:46:51.488Z,4.77
2018-03-14T09:48:01.352Z,4.78
2018-03-14T09:49:11.216Z,4.65
2018-03-14T09:50:21.385Z,4.73
2018-03-14T09:51:31.614Z,4.67
2018-03-14T09:52:41.477Z,4.68
2018-03-14T09:53:51.612Z,4.8
2018-03-14T09:55:01.768Z,4.73
2018-03-14T09:56:11.660Z,4.71
2018-03-14T09:57:21.814Z,4.73
2018-03-14T09:58:31.972Z,4.81
2018-03-14T09:59:41.835Z,4.78
2018-03-14T10:00:52.025Z,4.77
2018-03-14T10:02:02.185Z,4.73
2018-03-14T10:03:12.309Z,4.74
2018-03-14T10:04:22.461Z,4.74
2018-03-14T10:05:32.658Z,4.73
2018-03-14T10:06:42.892Z,4.78
2018-03-14T10:07:53.137Z,4.73
2018-03-14T10:09:03.126Z,4.75
2018-03-14T10:10:13.107Z,4.88
2018-03-14T10:11:22.734Z,4.86
2018-03-14T10:12:32.516Z,4.86
2018-03-14T10:13:42.668Z,4.89
2018-03-14T10:14:52.924Z,4.86
2018-03-14T10:16:03.238Z,4.81
2018-03-14T10:17:12.908Z,4.83
2018-03-14T10:18:23.121Z,4.83
2018-03-14T10:19:33.426Z,4.7
2018-03-14T10:20:43.565Z,4.77
2018-03-14T10:21:53.503Z,4.7
2018-03-14T10:23:03.490Z,4.7
2018-03-14T10:24:13.752Z,4.62
2018-03-14T10:25:23.881Z,4.56
2018-03-14T10:26:34.208Z,4.49
2018-03-14T10:27:43.332Z,4.5
2018-03-14T10:28:52.846Z,4.53
2018-03-14T10:30:02.964Z,4.49
2018-03-14T10:31:12.731Z,4.47
2018-03-14T10:32:22.512Z,4.46
2018-03-14T10:33:32.182Z,4.43
2018-03-14T10:34:42.333Z,4.47
2018-03-14T10:35:52.102Z,4.41
2018-03-14T10:37:02.106Z,4.43
2018-03-14T10:38:12.034Z,4.43
2018-03-14T10:39:21.917Z,4.31
2018-03-14T10:40:32.036Z,4.38
2018-03-14T10:41:41.896Z,4.25
2018-03-14T10:42:51.541Z,4.3
2018-03-14T10:44:02.719Z,4.36
2018-03-14T10:45:12.350Z,4.36
2018-03-14T10:46:22.592Z,4.23
2018-03-14T10:47:32.832Z,4.27
2018-03-14T10:48:42.442Z,4.18
2018-03-14T10:49:51.963Z,4.27
2018-03-14T10:51:01.909Z,4.2
2018-03-14T10:52:11.729Z,4.23
2018-03-14T10:53:21.667Z,4.27
2018-03-14T10:54:31.377Z,4.34
2018-03-14T10:55:41.531Z,4.34
2018-03-14T10:56:51.784Z,4.27
2018-03-14T10:58:01.638Z,4.3
2018-03-14T10:59:11.767Z,4.31
2018-03-14T11:00:21.930Z,4.31
2018-03-14T11:01:32.056Z,4.37
2018-03-14T11:02:42.296Z,4.33
2018-03-14T11:03:52.226Z,4.3
2018-03-14T11:05:02.113Z,4.36
2018-03-14T11:06:12.008Z,4.3
2018-03-14T11:07:21.888Z,4.34
2018-03-14T11:08:32.054Z,4.33
2018-03-14T11:09:41.918Z,4.31
2018-03-14T11:10:52.101Z,4.31
2018-03-14T11:12:02.363Z,4.27
2018-03-14T11:13:12.232Z,4.33
2018-03-14T11:14:22.135Z,4.28
2018-03-14T11:15:32.045Z,4.36
2018-03-14T11:16:42.301Z,4.31
2018-03-14T11:17:52.465Z,4.31
2018-03-14T11:19:02.686Z,4.3
2018-03-14T11:20:12.597Z,4.38
2018-03-14T11:21:22.775Z,4.43
2018-03-14T11:22:32.303Z,4.4
2018-03-14T11:23:42.441Z,4.6
2018-03-14T11:24:52.593Z,4.5
2018-03-14T11:26:02.726Z,4.52
2018-03-14T11:27:12.654Z,4.6
2018-03-14T11:28:22.542Z,4.6
2018-03-14T11:29:32.374Z,4.65
2018-03-14T11:30:42.540Z,4.7
2018-03-14T11:31:52.717Z,4.6
2018-03-14T11:33:02.888Z,4.75
2018-03-14T11:34:13.049Z,4.73
2018-03-14T11:35:23.233Z,4.85
2018-03-14T11:36:33.466Z,4.8
2018-03-14T11:37:43.349Z,4.83
2018-03-14T11:38:53.467Z,4.85
2018-03-14T11:40:03.339Z,4.83
2018-03-14T11:41:13.535Z,4.95
2018-03-14T11:42:23.505Z,4.98
2018-03-14T11:43:33.785Z,4.95
2018-03-14T11:44:44.071Z,4.95
2018-03-14T11:45:54.255Z,4.93
2018-03-14T11:47:04.516Z,5
2018-03-14T11:48:14.693Z,5.06
2018-03-14T11:49:24.881Z,5.08
2018-03-14T11:50:35.069Z,5.08
2018-03-14T11:51:45.369Z,5.13
2018-03-14T11:52:55.562Z,5.21
2018-03-14T11:54:05.799Z,5.21
2018-03-14T11:55:16.005Z,5.17
2018-03-14T11:56:26.235Z,5.18
2018-03-14T11:57:36.100Z,5.18
2018-03-14T11:58:45.874Z,5.16
2018-03-14T11:59:55.744Z,5.28
2018-03-14T12:01:05.887Z,5.16
2018-03-14T12:02:16.041Z,5.28
2018-03-14T12:03:25.936Z,5.24
2018-03-14T12:04:36.064Z,5.28
2018-03-14T12:05:45.949Z,5.14
2018-03-14T12:06:55.838Z,5.36
2018-03-14T12:08:05.743Z,5.17
2018-03-14T12:09:15.873Z,5.29
2018-03-14T12:10:26.090Z,5.16
2018-03-14T12:11:36.330Z,5.21
2018-03-14T12:12:46.488Z,5.14
2018-03-14T12:13:56.668Z,5.08
2018-03-14T12:15:06.871Z,5.1
2018-03-14T12:16:16.876Z,5.07
2018-03-14T12:17:26.502Z,5.04
2018-03-14T12:18:36.444Z,5.1
2018-03-14T12:19:46.471Z,5.1
2018-03-14T12:20:56.691Z,5.04
2018-03-14T12:22:06.657Z,5.1
2018-03-14T12:23:16.822Z,5.1
2018-03-14T12:24:26.753Z,5.11
2018-03-14T12:25:36.641Z,5.11
2018-03-14T12:26:46.790Z,5.03
2018-03-14T12:27:56.935Z,4.98
2018-03-14T12:29:06.827Z,5
2018-03-14T12:30:16.960Z,5.03
2018-03-14T12:31:26.771Z,4.99
2018-03-14T12:32:36.118Z,5.03
2018-03-14T12:33:45.756Z,5.04
2018-03-14T12:34:55.358Z,4.98
2018-03-14T12:36:04.895Z,5.04
2018-03-14T12:37:15.002Z,5.1
2018-03-14T12:38:25.176Z,5.1
2018-03-14T12:39:34.715Z,5.07
2018-03-14T12:40:44.866Z,5.11
2018-03-14T12:41:54.753Z,5.16
2018-03-14T12:43:04.883Z,5.18
2018-03-14T12:44:15.124Z,5.24
2018-03-14T12:45:24.883Z,5.26
2018-03-14T12:46:35.104Z,5.21
2018-03-14T12:47:45.290Z,5.22
2018-03-14T12:48:55.551Z,5.31
2018-03-14T12:50:05.705Z,5.24
2018-03-14T12:51:15.839Z,5.26
2018-03-14T12:52:25.701Z,5.22
2018-03-14T12:53:35.849Z,5.26
2018-03-14T12:54:46.025Z,5.18
2018-03-14T12:55:55.870Z,5.16
2018-03-14T12:57:05.491Z,5.18
2018-03-14T12:58:15.431Z,5.22
2018-03-14T12:59:25.208Z,5.25
2018-03-14T13:00:34.809Z,5.28
2018-03-14T13:01:44.428Z,5.31
2018-03-14T13:02:54.663Z,5.33
2018-03-14T13:04:04.933Z,5.26
2018-03-14T13:05:14.806Z,5.26
2018-03-14T13:06:24.951Z,5.17
2018-03-14T13:07:35.118Z,5.31
2018-03-14T13:08:44.985Z,5.25
2018-03-14T13:09:54.489Z,5.24
2018-03-14T13:11:03.994Z,5.24
2018-03-14T13:12:14.143Z,5.26
2018-03-14T13:13:24.359Z,5.32
2018-03-14T13:14:34.001Z,5.22
2018-03-14T13:15:44.209Z,5.26
2018-03-14T13:16:54.419Z,5.31
2018-03-14T13:18:04.322Z,5.21
2018-03-14T13:19:14.574Z,5.24
2018-03-14T13:20:24.763Z,5.31
2018-03-14T13:21:34.632Z,5.28
2018-03-14T13:22:44.485Z,5.16
2018-03-14T13:23:54.364Z,5.22
2018-03-14T13:25:04.713Z,5.21
2018-03-14T13:26:14.894Z,5.25
2018-03-14T13:27:24.508Z,5.24
2018-03-14T13:28:34.635Z,5.16
2018-03-14T13:29:44.763Z,5.22
2018-03-14T13:30:54.719Z,5.21
2018-03-14T13:32:04.953Z,5.24
2018-03-14T13:33:15.214Z,5.24
2018-03-14T13:34:25.364Z,5.22
2018-03-14T13:35:35.153Z,5.18
2018-03-14T13:36:45.024Z,5.24
2018-03-14T13:37:55.179Z,5.21
2018-03-14T13:39:05.085Z,5.22
2018-03-14T13:40:15.003Z,5.18
2018-03-14T13:41:25.150Z,5.22
2018-03-14T13:42:35.149Z,5.21
2018-03-14T13:43:45.350Z,5.18
2018-03-14T13:44:55.299Z,5.25
2018-03-14T13:46:05.157Z,5.16
2018-03-14T13:47:15.111Z,5.26
2018-03-14T13:48:25.072Z,5.21
2018-03-14T13:49:36.189Z,5.17
2018-03-14T13:50:46.311Z,5.17
2018-03-14T13:51:56.232Z,5.22
2018-03-14T13:53:06.138Z,5.25
2018-03-14T13:54:16.016Z,5.31
2018-03-14T13:55:26.147Z,5.16
2018-03-14T13:56:36.099Z,5.22
2018-03-14T13:57:46.280Z,5.22
2018-03-14T13:58:56.416Z,5.21
2018-03-14T14:00:06.455Z,5.26
2018-03-14T14:01:16.307Z,5.29
2018-03-14T14:02:26.186Z,5.21
2018-03-14T14:03:35.800Z,5.17
2018-03-14T14:04:45.913Z,5.18
2018-03-14T14:05:55.693Z,5.08
2018-03-14T14:07:05.835Z,5.11
2018-03-14T14:08:16.423Z,5.04
2018-03-14T14:09:26.562Z,5.04
2018-03-14T14:10:36.229Z,4.98
2018-03-14T14:11:46.131Z,4.96
2018-03-14T14:12:55.776Z,4.95
2018-03-14T14:14:05.767Z,4.9
2018-03-14T14:15:15.922Z,4.93
2018-03-14T14:16:25.572Z,4.86
2018-03-14T14:17:35.187Z,4.93
2018-03-14T14:18:45.336Z,4.85
2018-03-14T14:19:55.510Z,4.95
2018-03-14T14:21:05.464Z,4.93
2018-03-14T14:22:15.596Z,4.93
2018-03-14T14:23:25.783Z,4.93
2018-03-14T14:24:35.681Z,4.89
2018-03-14T14:25:45.833Z,4.95
2018-03-14T14:26:55.728Z,4.8
2018-03-14T14:28:05.610Z,4.85
2018-03-14T14:29:15.783Z,4.83
2018-03-14T14:30:25.753Z,4.8
2018-03-14T14:31:35.599Z,4.81
2018-03-14T14:32:45.796Z,4.85
2018-03-14T14:33:56.002Z,4.85
2018-03-14T14:35:06.187Z,4.83
2018-03-14T14:36:16.068Z,4.85
2018-03-14T14:37:26.189Z,4.77
2018-03-14T14:38:36.119Z,4.81
2018-03-14T14:39:46.247Z,4.77
2018-03-14T14:40:56.411Z,4.8
2018-03-14T14:42:06.277Z,4.67
2018-03-14T14:43:16.434Z,4.83
2018-03-14T14:44:26.437Z,4.8
2018-03-14T14:45:36.134Z,4.83
2018-03-14T14:46:46.266Z,4.8
2018-03-14T14:47:56.212Z,4.78
2018-03-14T14:49:06.432Z,4.78
2018-03-14T14:50:16.571Z,4.9
2018-03-14T14:51:26.502Z,4.93
2018-03-14T14:52:36.636Z,4.89
2018-03-14T14:53:46.865Z,4.95
2018-03-14T14:54:56.705Z,4.93
2018-03-14T14:56:06.637Z,4.95
2018-03-14T14:57:16.828Z,4.93
2018-03-14T14:58:26.950Z,4.9
2018-03-14T14:59:36.987Z,4.92
2018-03-14T15:00:46.616Z,4.95
2018-03-14T15:01:56.517Z,4.9
2018-03-14T15:03:06.100Z,4.89
2018-03-14T15:04:16.472Z,4.85
2018-03-14T15:05:26.352Z,4.86
2018-03-14T15:06:36.492Z,4.85
2018-03-14T15:07:46.624Z,4.85
2018-03-14T15:08:56.520Z,4.81
2018-03-14T15:10:06.684Z,4.85
2018-03-14T15:11:16.653Z,4.8
2018-03-14T15:12:26.789Z,4.78
2018-03-14T15:13:36.974Z,4.83
2018-03-14T15:14:47.125Z,4.92
2018-03-14T15:15:57.246Z,4.86
2018-03-14T15:17:07.426Z,4.8
2018-03-14T15:18:17.567Z,4.71
2018-03-14T15:19:27.770Z,4.86
2018-03-14T15:20:38.084Z,4.83
2018-03-14T15:21:48.258Z,4.85
2018-03-14T15:22:58.571Z,4.81
2018-03-14T15:24:08.739Z,4.88
2018-03-14T15:25:18.624Z,4.83
2018-03-14T15:26:28.512Z,5
2018-03-14T15:27:38.667Z,4.93
2018-03-14T15:28:49.023Z,4.92
2018-03-14T15:29:59.235Z,4.96
2018-03-14T15:31:09.164Z,4.89
2018-03-14T15:32:19.045Z,4.98
2018-03-14T15:33:28.912Z,4.78
2018-03-14T15:34:39.087Z,4.85
2018-03-14T15:35:49.089Z,4.75
2018-03-14T15:36:59.244Z,4.63